MiSS Angelica — WDJ5086 — position and weather

sailwx.info

Track history (hours):
 
Tides and Currents Weather Stations Pressure Air Temp Water Temp Dewpoint Dewpoint Depression Visibility Wind Speed Wind Dir Waves Ship Positions

MiSS Angelica

Owner: Russell Marine LLC., Channelview, TX. More information available from US FCC via Universal Licensing System and Coast Guard Vessel Documentation Center.

Last reported at 2018-Jan-19 15:54 UTC. Time now 2018-Jan-23 12:19 UTC.
Position N 29°45' W 095°04'.

Length 17 m; draft 1.5 m.

Type: Towing. MMSI: 367784160.

Date/timePositionNaut miles runAvg speedWind from/ knotsBaromVisibWave heightAir tempDewpointWater temp
2018-Jan-19 15:54N 29°45' W 095°04'3 6.5
2018-Jan-19 15:29N 29°43' W 095°01'3 5.8
2018-Jan-19 14:59N 29°41' W 094°59'2 3.6
2018-Jan-19 14:29N 29°41' W 094°57'2 2.3
2018-Jan-19 13:37N 29°43' W 094°56'0 0.0
2018-Jan-19 13:27N 29°43' W 094°56'1 2.6
2018-Jan-19 12:58N 29°42' W 094°55'2 4.2
2018-Jan-19 12:25N 29°41' W 094°58'  
2018-Jan-11 17:35N 29°46' W 095°05'0 0.0
2018-Jan-11 16:32N 29°46' W 095°05'0 0.0
2018-Jan-11 16:08N 29°46' W 095°05'0 0.2
2018-Jan-11 15:42N 29°46' W 095°05'0 0.0
2018-Jan-09 22:24N 29°46' W 095°05'9 4.1
2018-Jan-09 20:09N 29°40' W 094°56'1 4.8
2018-Jan-09 19:55N 29°41' W 094°55'1 0.6
2018-Jan-09 17:57N 29°42' W 094°56'1 2.5
2018-Jan-09 17:30N 29°41' W 094°55'2 4.4
2018-Jan-09 16:58N 29°41' W 094°58'3 6.2
2018-Jan-09 16:30N 29°42' W 095°01'4 6.8
2018-Jan-09 15:57N 29°45' W 095°04'  
Track history (hours):
 
Tides and Currents Weather Stations Pressure Air Temp Water Temp Dewpoint Dewpoint Depression Visibility Wind Speed Wind Dir Waves Ship Positions

MiSS Angelica

Owner: Russell Marine LLC., Channelview, TX. More information available from US FCC via Universal Licensing System and Coast Guard Vessel Documentation Center.

Last reported at 2018-Jan-19 15:54 UTC. Time now 2018-Jan-23 12:19 UTC.
Position N 29°45' W 095°04'.

Length 17 m; draft 1.5 m.

Type: Towing. MMSI: 367784160.

Date/timePositionNaut miles runAvg speedWind from/ knotsBaromVisibWave heightAir tempDewpointWater temp
2018-Jan-19 15:54N 29°45' W 095°04'3 6.5
2018-Jan-19 15:29N 29°43' W 095°01'3 5.8
2018-Jan-19 14:59N 29°41' W 094°59'2 3.6
2018-Jan-19 14:29N 29°41' W 094°57'2 2.3
2018-Jan-19 13:37N 29°43' W 094°56'0 0.0
2018-Jan-19 13:27N 29°43' W 094°56'1 2.6
2018-Jan-19 12:58N 29°42' W 094°55'2 4.2
2018-Jan-19 12:25N 29°41' W 094°58'  
2018-Jan-11 17:35N 29°46' W 095°05'0 0.0
2018-Jan-11 16:32N 29°46' W 095°05'0 0.0
2018-Jan-11 16:08N 29°46' W 095°05'0 0.2
2018-Jan-11 15:42N 29°46' W 095°05'0 0.0
2018-Jan-09 22:24N 29°46' W 095°05'9 4.1
2018-Jan-09 20:09N 29°40' W 094°56'1 4.8
2018-Jan-09 19:55N 29°41' W 094°55'1 0.6
2018-Jan-09 17:57N 29°42' W 094°56'1 2.5
2018-Jan-09 17:30N 29°41' W 094°55'2 4.4
2018-Jan-09 16:58N 29°41' W 094°58'3 6.2
2018-Jan-09 16:30N 29°42' W 095°01'4 6.8
2018-Jan-09 15:57N 29°45' W 095°04'  

Dump ship's entire track history